Bennion, Utah
Current Conditions -  °F | °C
As of 6:53 AM on Thursday 23 Oct 2014 (Local Time) from KSLC Reporting Station
Scattered Clouds Scattered Clouds  
Wind Chill: 42°   Ceiling: Unl
Heat Index: 46°   Visibility: 10mi
Dew Point: 34°   Wind: 8mph
Humidity: 63%   Direction: 120°ESE
Pressure: 30.11"   Gusts: NA
Location:  40.6511°N, 112.018°W
Report Text: KSLC 231253Z 12007KT 10SM SCT200 08/01 A3011 RMK AO2 SLP178 T00780011
Loading
Personal Weather Stations






























Interactive Weather Map
Tropical Storm Tracking
New forecast layout! Learn more

10-Day Weather Forecast

Advertisements
Track Severe Weather on mobile